UNR Ag. Experiment Farm, Sparks, Nevada Weather observations

Data are for 10 minute period ending at time listed.
 Day   Time   Solar   Ave.   Ave.  Ave.  Vector  Max.   Baro.   Total    
  of    of     Rad.   Air    Rel.  Wind   Wind   Wind  Press.  Precip.   
Year   Day            Temp.  Hum.  Speed  Dir.   Gust                    
2016   (PST)  Kw/m2    F      %     mph   deg.    mph    mb.     in.     
-------------------------------------------------------------------------
 180   15:50   0.59   87.9    17   11.8   275    17.4   867.2    0.00 
 180   16:00   0.56   87.3    17   11.7   276    17.5   867.2    0.00 
 180   16:10   0.54   88.3    16   11.2   270    18.3   867.2    0.00 
 180   16:20   0.52   88.5    14    9.5   262    16.2   867.2    0.00 
 180   16:30   0.50   89.8    15    8.5   263    13.7   867.2    0.00 
 180   16:40   0.29   86.8    16   10.5   276    17.2   867.2    0.00 
 180   16:50   0.12   85.7    15    9.5   286    15.2   867.1    0.00 
 180   17:00   0.13   84.2    18    8.7   277    13.0   867.1    0.00 
 180   17:10   0.10   83.7    18    9.6   279    15.5   867.1    0.00 
 180   17:20   0.10   84.3    17    9.8   277    13.7   867.0    0.00 
 180   17:30   0.10   83.0    19    9.8   274    13.1   867.0    0.00 
 180   17:40   0.10   83.2    18    9.5   275    13.1   867.0    0.00 
 180   17:50   0.10   82.9    19    8.3   274    11.7   867.0    0.00 
 180   18:00   0.23   83.6    19    9.9   275    15.6   867.1    0.00 
 180   18:10   0.19   84.9    17    8.2   283    14.5   867.2    0.00 
 180   18:20   0.09   83.6    18    9.9   277    14.0   867.3    0.00 
 180   18:30   0.10   83.3    18    7.4   274    11.1   867.4    0.00 
 180   18:40   0.13   83.9    18    6.7   275    11.8   867.6    0.00 
 180   18:50   0.11   84.1    18    6.1   274    11.1   867.7    0.00 
 180   19:00   0.08   83.0    20    7.0   272    13.2   867.8    0.00 
 180   19:10   0.06   82.6    20    5.8   276    11.0   867.8    0.00 
 180   19:20   0.02   82.1    20    5.3   262    10.7   867.8    0.00 
 180   19:30   0.01   81.7    20    6.6   262    12.3   867.9    0.00 
 180   19:40   0.01   81.2    20    6.2   256    11.0   867.8    0.00 
 180   19:50   0.00   81.2    19    4.6   246     9.4   867.9    0.00 
 180   20:00   0.00   80.4    22    5.4   266     8.4   868.0    0.00 
 180   20:10   0.00   78.9    23    2.5   255     4.5   868.1    0.00 
 180   20:20   0.00   78.4    21    3.2   217     5.4   868.2    0.00 
 180   20:30   0.00   79.7    21    2.9   240     5.3   868.3    0.00 
 180   20:40   0.00   78.8    21    1.5   232     3.9   868.4    0.00 
 180   20:50   0.00   78.5    22    1.1   224     3.4   868.5    0.00 
 180   21:00   0.00   77.1    23    0.5   285     2.9   868.5    0.00 
 180   21:10   0.00   78.1    24    1.6   334     3.1   868.5    0.00 
 180   21:20   0.00   73.6    29    1.5    42     2.9   868.5    0.00 
 180   21:30   0.00   73.0    32    0.9   243     2.0   868.5    0.00 
 180   21:40   0.00   70.9    37    1.3    61     4.4   868.5    0.00 
 180   21:50   0.00   69.6    37    2.5    99     3.4   868.5    0.00 
 180   22:00   0.00   68.8    40    1.5    85     2.3   868.4    0.00 
 180   22:10   0.00   66.9    45    2.0   329     3.7   868.3    0.00 
 180   22:20   0.00   68.5    42    2.0    12     2.8   868.2    0.00 
 180   22:30   0.00   65.5    51    2.2   189     3.4   868.1    0.00 
 180   22:40   0.00   66.7    46    1.0   191     2.3   867.9    0.00 
 180   22:50   0.00   66.7    48    1.1   170     3.1   867.9    0.00 
 180   23:00   0.00   65.3    58    2.0   190     3.5   868.0    0.00 
 180   23:10   0.00   67.0    47    0.7   233     3.6   867.9    0.00 
 180   23:20   0.00   67.4    44    2.6   259     3.9   867.9    0.00 
 180   23:30   0.00   68.3    44    3.1   206     5.2   867.9    0.00 
 180   23:40   0.00   65.9    48    3.3   113     5.3   868.0    0.00 
 180   23:50   0.00   69.4    38    1.2    75     3.1   868.0    0.00 
 181    0:00   0.00   70.0    36    1.7    68     3.3   868.1    0.00 
 181    0:10   0.00   69.2    38    1.2   335     3.6   868.2    0.00 
 181    0:20   0.00   67.5    42    2.5   319     3.6   868.1    0.00 
 181    0:30   0.00   68.8    39    3.3   295     4.2   868.0    0.00 
 181    0:40   0.00   69.0    36    3.9   308     6.1   868.0    0.00 
 181    0:50   0.00   68.5    38    3.5   323     4.7   868.0    0.00 
 181    1:00   0.00   65.0    47    2.2   112     3.5   868.0    0.00 
 181    1:10   0.00   63.2    58    3.5   138     4.7   868.1    0.00 
 181    1:20   0.00   62.2    56    2.8   164     3.9   868.1    0.00 
 181    1:30   0.00   63.6    47    2.2   234     4.7   868.0    0.00 
 181    1:40   0.00   62.3    53    4.0   278     5.6   867.9    0.00 
 181    1:50   0.00   62.5    53    3.7   178     5.6   867.9    0.00 
 181    2:00   0.00   63.9    45    3.0   152     5.4   867.8    0.00 
 181    2:10   0.00   65.5    43    0.4   223     2.1   867.7    0.00 
 181    2:20   0.00   64.3    46    2.7   142     5.3   867.7    0.00 
 181    2:30   0.00   62.7    48    3.7   113     6.1   867.7    0.00 
 181    2:40   0.00   61.5    52    1.0   258     3.2   867.6    0.00 
 181    2:50   0.00   57.5    66    1.2   234     3.1   867.6    0.00 
 181    3:00   0.00   58.7    64    1.8   264     2.7   867.6    0.00 
 181    3:10   0.00   60.7    55    1.1   284     2.4   867.7    0.00 
 181    3:20   0.00   60.4    57    1.7   295     3.4   867.7    0.00 
 181    3:30   0.00   60.6    56    4.3   288     5.4   867.7    0.00 
 181    3:40   0.00   60.2    61    1.8   267     5.4   867.8    0.00 
 181    3:50   0.00   58.1    64    2.2   134     4.1   867.8    0.00 
 181    4:00   0.00   58.3    66    2.8   139     3.7   867.8    0.00 
 181    4:10   0.00   58.8    65    1.1   131     2.7   867.8    0.00 
 181    4:20   0.00   59.7    63    1.2   236     3.1   867.8    0.00 
 181    4:30   0.00   57.2    70    1.2   283     2.3   867.9    0.00 
 181    4:40   0.00   56.6    70    0.4   225     2.5   868.0    0.00 
 181    4:50   0.01   56.7    71    1.1   267     3.5   868.1    0.00 
 181    5:00   0.01   56.8    68    0.8   223     2.8   868.2    0.00 
 181    5:10   0.03   57.2    71    1.9   153     2.9   868.3    0.00 
 181    5:20   0.05   57.9    67    2.6   146     4.0   868.4    0.00 
 181    5:30   0.05   58.7    66    2.2   143     3.4   868.4    0.00 
 181    5:40   0.08   59.6    66    0.7   158     1.8   868.5    0.00 
 181    5:50   0.12   60.0    72    0.6   145     1.0   868.5    0.00 
 181    6:00   0.14   60.7    74    0.8   280     3.1   868.5    0.00 
 181    6:10   0.16   62.1    70    0.9   238     3.4   868.5    0.00 
 181    6:20   0.19   63.8    65    0.5   229     3.1   868.5    0.00 
 181    6:30   0.21   66.5    51    0.6   215     3.1   868.5    0.00 
 181    6:40   0.23   67.0    44    0.4   245     3.5   868.5    0.00 
 181    6:50   0.26   68.7    43    0.9   288     1.9   868.6    0.00 
 181    7:00   0.29   68.9    45    1.6   302     2.9   868.6    0.00 
 181    7:10   0.32   70.0    38    1.3   282     2.9   868.7    0.00 
 181    7:20   0.35   71.3    35    0.6   321     2.1   868.8    0.00 
 181    7:30   0.37   73.6    31    0.6    25     1.6   868.9    0.00 
 181    7:40   0.40   75.2    29    0.5     2     1.5   868.9    0.00 
 181    7:50   0.43   76.3    30    0.7    62     1.9   868.9    0.00 
 181    8:00   0.44   77.1    30    1.7    54     3.1   868.9    0.00 
 181    8:10   0.48   76.8    30    1.1    17     2.9   869.1    0.00 
 181    8:20   0.50   76.7    31    1.1   333     2.6   869.1    0.00 
 181    8:30   0.53   77.6    29    1.1     4     2.8   869.1    0.00 
 181    8:40   0.55   79.7    28    0.9    28     2.5   869.1    0.00 
 181    8:50   0.58   79.7    24    0.7   350     2.2   869.1    0.00 
 181    9:00   0.60   79.7    25    1.4    55     2.9   869.0    0.00 
 181    9:10   0.50   81.0    24    0.9    64     3.1   869.0    0.00 
 181    9:20   0.32   80.8    23    0.5    46     2.0   868.9    0.00 
 181    9:30   0.55   79.9    24    0.5   213     3.0   868.8    0.00 
 181    9:40   0.74   81.7    22    1.3    39     3.3   868.7    0.00 
 181    9:50   0.74   82.1    20    1.0   255     3.4   868.6    0.00 
 181   10:00   0.73   82.1    21    1.5   330     3.7   868.6    0.00 
 181   10:10   0.75   83.3    20    1.3   326     2.6   868.4    0.00 
 181   10:20   0.77   84.2    17    1.2   354     2.9   868.4    0.00 
 181   10:30   0.78   84.9    18    1.1   231     3.4   868.3    0.00 
 181   10:40   0.80   85.5    15    1.2   163     3.1   868.3    0.00 
 181   10:50   0.81   86.5    16    1.4    20     2.9   868.2    0.00 
 181   11:00   0.82   86.3    17    2.4   340     4.9   868.0    0.00 
 181   11:10   0.83   86.5    19    2.4   312     4.7   867.9    0.00 
 181   11:20   0.84   86.7    16    2.2   276     4.5   867.8    0.00 
 181   11:30   0.85   88.7    13    3.2   183     7.3   867.8    0.00 
 181   11:40   0.86   88.6    17    2.6   329     5.8   867.6    0.00 
 181   11:50   0.87   88.8    14    3.9   282     7.9   867.4    0.00 
 181   12:00   0.88   88.7    14    4.2   319     6.3   867.2    0.00 
 181   12:10   0.87   89.1    18    3.7   345     6.4   867.0    0.00 
 181   12:20   0.88   89.3    15    3.9   347     8.6   866.8    0.00 
 181   12:30   0.89   89.7    16    4.8   297     9.9   866.8    0.00 
 181   12:40   0.89   90.4    14    3.5   319     6.5   866.6    0.00 
 181   12:50   0.89   90.8    13    2.8    32     7.2   866.5    0.00 
 181   13:00   0.90   92.7    11    2.5   152     6.7   866.4    0.00 
 181   13:10   0.90   93.2    11    5.9   204    13.4   866.2    0.00 
 181   13:20   0.89   92.6    13    5.9   278    15.2   866.0    0.00 
 181   13:30   0.86   93.6    12    6.8   241    19.4   866.0    0.00 
 181   13:40   0.83   93.8    12    5.8   235    14.2   865.9    0.00 
 181   13:50   0.82   94.2    12   11.4   190    20.7   865.7    0.00 
 181   14:00   0.81   94.5    11   11.5   196    19.8   865.7    0.00 
 181   14:10   0.80   94.7    11    9.6   231    16.1   865.7    0.00 
 181   14:20   0.79   94.7    12   10.5   234    19.6   865.6    0.00 
 181   14:30   0.77   94.4    11    9.8   212    14.8   865.6    0.00 
 181   14:40   0.75   94.6    11   11.6   205    15.9   865.5    0.00 
 181   14:50   0.73   94.3    11    9.2   231    17.3   865.5    0.00 
 181   15:00   0.71   93.3    12   10.5   248    19.8   865.4    0.00 
 181   15:10   0.68   92.0    14   10.5   279    17.5   865.3    0.00 
 181   15:20   0.66   91.2    15    9.2   272    16.2   865.3    0.00 
 181   15:30   0.64   91.7    14   12.0   271    18.6   865.3    0.00 
 181   15:40   0.62   90.7    15   10.7   271    16.1   865.3    0.00 

Return to Sparks, Nevada, UNR Ag Experiment Farm graphs page.


Western Regional Climate Center,wrcc@dri.edu